Time;durP1;ratioP1;P1;durP2;ratioP2;P2;SDS_P1;SDS_P2;PMS_P1;PMS_P2;Temp;Humidity;BMP_temperature;BMP_pressure;BME280_temperature;BME280_humidity;BME280_pressure;Samples;Min_cycle;Max_cycle;Signal;HPM_P1;HPM_P2
2022/05/05 00:01:52;;;;;;;12.52;3.03;;;;;;;9.05;65.00;100697.66;5083950;28;20099;-70
2022/05/05 00:04:22;;;;;;;8.15;2.72;;;;;;;8.94;65.26;100700.22;5083734;28;20138;-69
2022/05/05 00:06:48;;;;;;;9.38;2.85;;;;;;;8.84;65.49;100694.13;5083799;28;20016;-70
2022/05/05 00:09:14;;;;;;;7.63;2.30;;;;;;;8.87;65.41;100708.81;5065433;28;20108;-70
2022/05/05 00:14:24;;;;;;;13.40;2.63;;;;;;;8.64;65.65;100707.84;5083716;28;20035;-70
2022/05/05 00:16:57;;;;;;;15.77;2.90;;;;;;;8.55;66.31;100707.81;5083605;28;20111;-69
2022/05/05 00:19:23;;;;;;;9.77;3.08;;;;;;;8.48;66.06;100703.44;5083510;28;20028;-69
2022/05/05 00:21:49;;;;;;;10.25;3.15;;;;;;;8.42;66.33;100707.72;5083692;28;20081;-69
2022/05/05 00:24:16;;;;;;;8.27;2.83;;;;;;;8.33;66.54;100712.84;5083572;28;20021;-69
2022/05/05 00:26:41;;;;;;;10.20;2.85;;;;;;;8.27;66.70;100705.06;5083396;28;20096;-69
2022/05/05 00:29:07;;;;;;;9.75;3.05;;;;;;;8.21;66.59;100707.63;5083464;28;20069;-69
2022/05/05 00:31:32;;;;;;;10.60;3.35;;;;;;;8.16;66.90;100703.25;5083543;28;20114;-69
2022/05/05 00:33:57;;;;;;;11.23;2.70;;;;;;;8.14;66.91;100706.69;5083398;28;20028;-70
2022/05/05 00:36:23;;;;;;;10.60;3.45;;;;;;;8.04;67.02;100710.94;5083423;28;20067;-69
2022/05/05 00:38:48;;;;;;;7.88;2.97;;;;;;;7.95;67.40;100714.34;5065346;28;20108;-70
2022/05/05 00:41:13;;;;;;;7.22;3.03;;;;;;;7.88;67.28;100713.41;5083137;28;20040;-69
2022/05/05 00:43:39;;;;;;;12.00;2.78;;;;;;;7.84;67.42;100714.25;5083209;28;20024;-69
2022/05/05 00:46:04;;;;;;;13.75;3.30;;;;;;;7.80;67.50;100710.78;5083206;28;20414;-69
2022/05/05 00:48:31;;;;;;;9.82;3.20;;;;;;;7.77;67.54;100710.75;5083098;28;20059;-69
2022/05/05 00:50:57;;;;;;;10.43;3.03;;;;;;;7.77;67.49;100712.47;5083180;28;20017;-69
2022/05/05 00:53:23;;;;;;;8.27;2.97;;;;;;;7.75;67.61;100709.88;5083093;28;20085;-69
2022/05/05 00:55:51;;;;;;;11.55;3.67;;;;;;;7.68;67.74;100716.69;5085860;28;20080;-68
2022/05/05 00:58:18;;;;;;;9.35;3.17;;;;;;;7.58;67.94;100712.31;5071950;28;20317;-68
2022/05/05 01:00:44;;;;;;;12.55;3.67;;;;;;;7.58;68.01;100712.31;5089518;28;20024;-70
2022/05/05 01:03:12;;;;;;;9.52;2.85;;;;;;;7.50;68.30;100708.78;5089926;28;20024;-69
2022/05/05 01:05:38;;;;;;;10.48;4.25;;;;;;;7.49;68.35;100715.66;5089535;28;20031;-70
2022/05/05 01:08:05;;;;;;;14.35;3.92;;;;;;;7.48;68.54;100718.22;5089860;28;20030;-69
2022/05/05 01:10:30;;;;;;;10.18;3.90;;;;;;;7.43;68.89;100711.31;5089723;28;20044;-69
2022/05/05 01:12:55;;;;;;;10.98;3.42;;;;;;;7.40;68.84;100716.44;5089207;28;20027;-68
2022/05/05 01:15:21;;;;;;;6.43;3.33;;;;;;;7.29;69.33;100710.31;5089176;28;20028;-69
2022/05/05 01:17:47;;;;;;;8.35;3.13;;;;;;;7.37;68.92;100720.72;5089384;28;20031;-69
2022/05/05 01:20:14;;;;;;;9.82;3.25;;;;;;;7.32;69.01;100720.66;5089248;28;20075;-68
2022/05/05 01:22:40;;;;;;;9.45;4.25;;;;;;;7.29;69.36;100711.19;5089273;28;20099;-69
2022/05/05 01:30:33;;;;;;;10.57;3.53;;;;;;;7.27;69.18;100722.34;5089302;28;20031;-68
2022/05/05 01:32:59;;;;;;;12.63;4.43;;;;;;;7.24;69.44;100722.31;5089225;28;20024;-68
2022/05/05 01:35:24;;;;;;;8.45;2.95;;;;;;;7.22;69.55;100717.13;5089000;28;20056;-67
2022/05/05 01:37:50;;;;;;;13.75;4.40;;;;;;;7.23;69.69;100720.59;5089258;28;20016;-68
2022/05/05 01:40:16;;;;;;;8.60;3.10;;;;;;;7.23;69.82;100721.47;5089279;28;20084;-68
2022/05/05 01:42:41;;;;;;;9.73;2.97;;;;;;;7.24;70.10;100724.88;5070790;28;20034;-68
2022/05/05 01:45:07;;;;;;;6.55;3.10;;;;;;;7.25;70.34;100717.16;5088991;28;20040;-68
2022/05/05 01:47:32;;;;;;;9.13;3.25;;;;;;;7.27;70.61;100722.34;5089034;28;20025;-68
2022/05/05 01:49:59;;;;;;;8.48;2.83;;;;;;;7.24;70.75;100710.25;5089023;28;20024;-68
2022/05/05 01:52:25;;;;;;;13.50;3.35;;;;;;;7.28;70.74;100719.78;5088983;28;20085;-69
2022/05/05 01:54:50;;;;;;;15.00;3.85;;;;;;;7.31;70.82;100718.94;5088791;28;20020;-69
2022/05/05 01:57:15;;;;;;;8.95;4.22;;;;;;;7.33;70.58;100714.69;5088852;28;20050;-69
2022/05/05 01:59:41;;;;;;;11.77;4.32;;;;;;;7.32;70.46;100710.34;5088803;28;20500;-69
2022/05/05 02:02:06;;;;;;;13.88;3.58;;;;;;;7.28;70.56;100716.34;5089015;28;20449;-68
2022/05/05 02:04:31;;;;;;;10.85;3.70;;;;;;;7.27;70.53;100723.22;5088737;28;20028;-68
2022/05/05 02:06:57;;;;;;;12.52;3.70;;;;;;;7.21;70.85;100715.41;5087120;28;20021;-69
2022/05/05 02:09:22;;;;;;;11.93;3.38;;;;;;;7.23;70.93;100715.41;5085606;28;20025;-68
2022/05/05 02:11:48;;;;;;;10.82;3.22;;;;;;;7.17;71.01;100717.06;5085523;28;20032;-68
2022/05/05 02:14:13;;;;;;;11.05;3.75;;;;;;;7.16;70.85;100714.47;5085729;28;20017;-69
2022/05/05 02:16:38;;;;;;;11.77;3.33;;;;;;;7.16;70.68;100712.78;5085979;28;20043;-69
2022/05/05 02:19:03;;;;;;;7.20;3.60;;;;;;;7.16;70.78;100714.47;5085764;28;20059;-69
2022/05/05 02:21:29;;;;;;;12.50;3.33;;;;;;;7.09;71.19;100723.91;5067688;28;20042;-68
2022/05/05 02:23:54;;;;;;;9.20;3.13;;;;;;;7.09;71.10;100728.19;5085568;28;20123;-68
2022/05/05 02:26:20;;;;;;;19.33;5.88;;;;;;;7.06;71.20;100723.88;5085759;28;20026;-69
2022/05/05 02:28:45;;;;;;;8.48;4.07;;;;;;;7.03;71.27;100721.22;5085621;28;20028;-69
2022/05/05 02:31:10;;;;;;;7.50;3.88;;;;;;;7.03;70.97;100719.50;5085678;28;20382;-68
2022/05/05 02:33:36;;;;;;;9.90;3.08;;;;;;;7.00;70.89;100722.06;5085324;28;20024;-67
2022/05/05 02:38:47;;;;;;;11.55;3.40;;;;;;;6.91;71.41;100717.66;5085624;28;20054;-68
2022/05/05 02:41:13;;;;;;;8.88;3.30;;;;;;;6.88;71.80;100715.06;5085045;28;20055;-67
2022/05/05 02:43:38;;;;;;;7.93;4.00;;;;;;;6.89;71.96;100716.78;5085332;28;20012;-68
2022/05/05 02:46:04;;;;;;;13.75;3.88;;;;;;;6.90;71.98;100722.81;5085164;28;20329;-69
2022/05/05 02:48:29;;;;;;;7.05;3.17;;;;;;;6.90;72.05;100722.81;5085198;28;20032;-68
2022/05/05 02:50:54;;;;;;;6.93;3.58;;;;;;;6.88;72.08;100722.78;5085048;28;20450;-69
2022/05/05 02:56:04;;;;;;;17.60;4.20;;;;;;;6.83;72.20;100716.72;5085020;28;20289;-67
2022/05/05 02:58:29;;;;;;;12.90;4.18;;;;;;;6.84;72.40;100718.44;5085040;28;20028;-69
2022/05/05 03:00:55;;;;;;;8.80;3.78;;;;;;;6.81;72.47;100718.38;5084982;28;20103;-69
2022/05/05 03:03:20;;;;;;;7.82;3.83;;;;;;;6.82;72.33;100721.00;5085236;28;20088;-70
2022/05/05 03:05:46;;;;;;;13.85;4.22;;;;;;;6.83;72.46;100721.88;5085236;28;20476;-69
2022/05/05 03:08:12;;;;;;;12.52;3.85;;;;;;;6.84;72.43;100723.59;5084989;28;20088;-69
2022/05/05 03:10:38;;;;;;;9.32;4.80;;;;;;;6.79;72.78;100720.06;5084708;28;20024;-70
2022/05/05 03:13:04;;;;;;;14.70;4.30;;;;;;;6.78;73.10;100723.50;5084585;28;20372;-69
2022/05/05 03:15:29;;;;;;;16.02;3.53;;;;;;;6.78;73.39;100718.34;5084527;28;20021;-69
2022/05/05 03:17:54;;;;;;;13.70;4.38;;;;;;;6.79;73.65;100713.22;5084743;28;20103;-70
2022/05/05 03:20:20;;;;;;;13.45;3.30;;;;;;;6.85;74.01;100714.16;5083389;28;20043;-69
2022/05/05 03:22:45;;;;;;;9.75;4.25;;;;;;;6.92;74.18;100711.66;5084756;28;20037;-69
2022/05/05 03:25:10;;;;;;;10.07;3.78;;;;;;;7.02;74.14;100712.63;5084492;28;20026;-69
2022/05/05 03:27:37;;;;;;;9.65;3.47;;;;;;;7.10;74.07;100707.53;5084303;28;20028;-69
2022/05/05 03:30:03;;;;;;;8.18;3.33;;;;;;;7.15;74.23;100708.47;5084457;28;20031;-68
2022/05/05 03:32:29;;;;;;;10.68;3.65;;;;;;;7.21;74.33;100706.78;5084297;28;20048;-68
2022/05/05 03:34:55;;;;;;;8.70;3.55;;;;;;;7.28;74.36;100708.59;5084347;28;20028;-68
2022/05/05 03:37:20;;;;;;;11.82;3.60;;;;;;;7.37;74.31;100711.25;5084361;28;20161;-69
2022/05/05 03:39:46;;;;;;;6.75;3.03;;;;;;;7.39;74.49;100703.53;5084170;28;20042;-69
2022/05/05 03:42:11;;;;;;;7.55;4.30;;;;;;;7.49;74.13;100712.22;5084079;28;20067;-68
2022/05/05 03:44:37;;;;;;;9.27;3.40;;;;;;;7.60;74.14;100715.78;5084023;28;20048;-68
2022/05/05 03:47:03;;;;;;;9.48;3.58;;;;;;;7.61;74.33;100707.16;5084147;28;20039;-69
2022/05/05 03:49:28;;;;;;;12.43;5.50;;;;;;;7.72;74.01;100719.31;5084115;28;20017;-69
2022/05/05 03:51:55;;;;;;;15.95;4.07;;;;;;;7.79;74.00;100721.09;5084097;28;20028;-69
2022/05/05 03:54:22;;;;;;;9.95;3.60;;;;;;;7.86;73.71;100725.47;5083957;28;20033;-69
2022/05/05 03:56:47;;;;;;;15.70;3.90;;;;;;;7.90;74.03;100723.78;5065708;28;20048;-68
2022/05/05 03:59:12;;;;;;;14.52;5.10;;;;;;;7.93;74.00;100719.50;5084191;28;20032;-69
2022/05/05 04:01:38;;;;;;;14.85;4.15;;;;;;;8.00;74.04;100729.88;5083928;28;20431;-69
2022/05/05 04:04:03;;;;;;;17.17;3.63;;;;;;;8.03;73.90;100720.44;5083859;28;20028;-68
2022/05/05 04:06:29;;;;;;;12.63;4.22;;;;;;;8.10;73.98;100721.31;5083706;28;20028;-68
2022/05/05 04:08:54;;;;;;;11.25;4.50;;;;;;;8.20;73.65;100722.25;5083797;28;20442;-69
2022/05/05 04:11:19;;;;;;;13.43;3.75;;;;;;;8.27;73.39;100718.88;5065487;28;20052;-68
2022/05/05 04:13:46;;;;;;;10.95;3.67;;;;;;;8.33;73.31;100720.63;5083586;28;20111;-69
2022/05/05 04:16:11;;;;;;;11.70;4.20;;;;;;;8.40;73.29;100718.94;5083588;28;20023;-70
2022/05/05 04:18:37;;;;;;;10.48;3.83;;;;;;;8.46;73.27;100718.09;5083597;28;20329;-68
2022/05/05 04:21:03;;;;;;;5.78;3.80;;;;;;;8.57;73.11;100711.28;5083584;28;20017;-68
2022/05/05 04:23:28;;;;;;;14.63;4.70;;;;;;;8.70;72.82;100703.56;5083494;28;20024;-68
2022/05/05 04:25:54;;;;;;;11.15;4.10;;;;;;;8.73;72.46;100703.59;5083344;28;20024;-69
2022/05/05 04:28:19;;;;;;;10.73;4.57;;;;;;;8.82;72.29;100708.78;5083453;28;20054;-69
2022/05/05 04:30:45;;;;;;;10.60;3.63;;;;;;;8.81;72.22;100699.31;5083013;28;20021;-69
2022/05/05 04:33:11;;;;;;;12.43;4.50;;;;;;;8.91;71.95;100715.75;5083473;28;20023;-68
2022/05/05 04:35:36;;;;;;;8.80;3.97;;;;;;;8.92;71.82;100713.16;5082878;28;20066;-68
2022/05/05 04:38:03;;;;;;;11.82;3.95;;;;;;;8.99;71.72;100720.94;5083312;28;20029;-68
2022/05/05 04:40:28;;;;;;;7.97;4.20;;;;;;;9.14;71.38;100707.16;5083372;28;20073;-69
2022/05/05 04:42:53;;;;;;;13.18;4.00;;;;;;;9.22;71.12;100721.00;5064979;28;20027;-67
2022/05/05 04:45:19;;;;;;;9.52;4.28;;;;;;;9.32;70.77;100723.59;5083092;28;20036;-68
2022/05/05 04:47:44;;;;;;;10.90;4.45;;;;;;;9.36;70.33;100712.41;5065369;28;20020;-67
2022/05/05 04:50:10;;;;;;;15.82;4.50;;;;;;;9.44;69.97;100715.00;5083266;28;20107;-69
2022/05/05 04:52:35;;;;;;;12.27;4.95;;;;;;;9.38;69.57;100708.06;5083125;28;20024;-71
2022/05/05 04:55:01;;;;;;;12.18;4.95;;;;;;;9.46;69.79;100718.44;5083104;28;20535;-68
2022/05/05 04:57:26;;;;;;;12.55;4.70;;;;;;;9.46;69.49;100708.94;5082977;28;20020;-75
2022/05/05 04:59:52;;;;;;;12.15;5.45;;;;;;;9.53;69.01;100712.41;5083176;28;20050;-69
2022/05/05 05:02:17;;;;;;;15.82;4.72;;;;;;;9.53;69.22;100722.78;5083242;28;20503;-73
2022/05/05 05:04:42;;;;;;;11.68;5.05;;;;;;;9.59;69.26;100722.78;5082954;28;20017;-65
2022/05/05 05:07:08;;;;;;;17.45;5.72;;;;;;;9.60;68.96;100727.09;5083003;28;20062;-64
2022/05/05 05:09:34;;;;;;;10.43;4.88;;;;;;;9.58;68.97;100726.25;5083009;28;20263;-66
2022/05/05 05:12:00;;;;;;;10.40;4.30;;;;;;;9.60;69.09;100726.25;5082808;28;20299;-66
2022/05/05 05:14:26;;;;;;;16.65;5.38;;;;;;;9.62;68.91;100727.97;5082555;28;20391;-66
2022/05/05 05:16:51;;;;;;;18.00;5.35;;;;;;;9.71;69.07;100731.44;5082594;28;20074;-66
2022/05/05 05:19:17;;;;;;;13.77;5.35;;;;;;;9.87;68.71;100734.91;5082498;28;20024;-66
2022/05/05 05:21:42;;;;;;;13.80;5.50;;;;;;;9.94;68.43;100727.97;5083000;28;20027;-65
2022/05/05 05:24:08;;;;;;;12.13;5.35;;;;;;;9.92;68.10;100739.22;5064351;28;20544;-65
2022/05/05 05:26:33;;;;;;;16.02;6.35;;;;;;;9.91;68.26;100732.31;5082036;28;20039;-65
2022/05/05 05:28:58;;;;;;;12.38;5.50;;;;;;;9.94;68.22;100733.16;5064274;28;20020;-65
2022/05/05 05:31:24;;;;;;;17.20;5.38;;;;;;;9.93;68.18;100745.28;5082854;28;20020;-68
2022/05/05 05:33:49;;;;;;;13.32;4.75;;;;;;;9.87;68.39;100740.94;5082516;28;20291;-66
2022/05/05 05:36:15;;;;;;;12.20;5.63;;;;;;;9.83;68.58;100747.00;5082354;28;20075;-69
2022/05/05 05:38:40;;;;;;;16.05;4.95;;;;;;;9.81;68.85;100746.13;5082488;28;20028;-66
2022/05/05 05:41:06;;;;;;;16.58;5.50;;;;;;;9.82;69.07;100747.88;5082204;28;20024;-66
2022/05/05 05:43:31;;;;;;;16.40;6.03;;;;;;;9.86;69.12;100753.91;5084369;28;20230;-66
2022/05/05 05:45:56;;;;;;;12.75;5.63;;;;;;;9.91;69.14;100750.47;5085909;28;20092;-66
2022/05/05 05:48:21;;;;;;;19.95;6.28;;;;;;;10.01;68.96;100751.31;5086051;28;20036;-66
2022/05/05 05:50:47;;;;;;;13.90;5.28;;;;;;;10.12;68.73;100750.44;5086162;28;20030;-65
2022/05/05 05:53:12;;;;;;;8.82;5.43;;;;;;;10.21;68.79;100752.19;5086156;28;20089;-65
2022/05/05 05:55:37;;;;;;;19.20;5.32;;;;;;;10.26;68.31;100753.00;5085914;28;20032;-66
2022/05/05 05:58:03;;;;;;;14.88;5.80;;;;;;;10.36;68.05;100749.53;5085900;28;20046;-66
2022/05/05 06:00:30;;;;;;;16.13;5.25;;;;;;;10.43;67.95;100755.59;5085899;28;20029;-66
2022/05/05 06:05:39;;;;;;;18.38;5.05;;;;;;;10.48;67.38;100768.59;5085169;28;20569;-66
2022/05/05 06:08:05;;;;;;;15.15;4.88;;;;;;;10.58;67.29;100753.84;5085014;28;20048;-67
2022/05/05 06:10:33;;;;;;;14.65;4.57;;;;;;;10.65;67.00;100764.19;5084894;28;20074;-66
2022/05/05 06:12:58;;;;;;;10.85;4.88;;;;;;;10.76;66.51;100764.19;5084809;28;20024;-67
2022/05/05 06:15:24;;;;;;;18.80;4.72;;;;;;;10.88;66.62;100760.66;5084873;28;20039;-67
2022/05/05 06:17:51;;;;;;;10.45;5.43;;;;;;;10.91;65.75;100760.66;5085019;28;20328;-67
2022/05/05 06:20:16;;;;;;;9.85;5.63;;;;;;;10.89;65.84;100770.19;5084954;28;20021;-67
2022/05/05 06:22:42;;;;;;;12.57;5.47;;;;;;;10.88;65.71;100778.84;5084923;28;20100;-67
2022/05/05 06:25:08;;;;;;;16.17;5.30;;;;;;;10.85;65.42;100762.41;5084812;28;20090;-67
2022/05/05 06:27:34;;;;;;;12.77;5.40;;;;;;;10.91;65.19;100768.44;5084560;28;20089;-66
2022/05/05 06:30:04;;;;;;;12.25;5.43;;;;;;;10.98;65.33;100763.22;5084545;28;20037;-67
2022/05/05 06:32:29;;;;;;;11.85;4.95;;;;;;;11.39;65.96;100772.53;5084521;28;20017;-68
2022/05/05 06:34:55;;;;;;;7.97;4.07;;;;;;;12.17;66.32;100770.28;5084389;28;20036;-67
2022/05/05 06:37:20;;;;;;;9.38;4.60;;;;;;;12.81;63.42;100773.06;5084753;28;20494;-66
2022/05/05 06:39:45;;;;;;;12.55;4.38;;;;;;;13.23;62.74;100762.13;5084439;28;20330;-67
2022/05/05 06:42:11;;;;;;;10.90;4.40;;;;;;;13.85;58.65;100768.19;5084417;28;20417;-67
2022/05/05 06:44:36;;;;;;;7.68;3.42;;;;;;;13.88;56.71;100775.97;5084530;28;20078;-67
2022/05/05 06:47:03;;;;;;;10.23;5.70;;;;;;;14.08;57.72;100766.94;5084749;28;20038;-67
2022/05/05 06:49:29;;;;;;;14.88;4.32;;;;;;;14.63;56.47;100781.63;5084867;28;20020;-69
2022/05/05 06:51:54;;;;;;;15.00;4.18;;;;;;;15.02;55.88;100778.25;5066374;28;20252;-68
2022/05/05 06:54:19;;;;;;;7.75;3.67;;;;;;;15.19;54.30;100780.50;5083974;28;20020;-68
2022/05/05 06:56:45;;;;;;;12.50;4.43;;;;;;;15.16;53.16;100777.13;5083898;28;20101;-68
2022/05/05 06:59:10;;;;;;;7.38;4.18;;;;;;;15.20;53.80;100790.09;5084211;28;20060;-68
2022/05/05 07:01:53;;;;;;;9.43;4.43;;;;;;;15.03;52.26;100787.81;5084084;28;20052;-68
2022/05/05 07:07:08;;;;;;;11.93;4.60;;;;;;;14.27;53.29;100792.72;5084353;28;20032;-68
2022/05/05 07:12:18;;;;;;;10.38;4.53;;;;;;;13.54;55.25;100801.72;5084255;28;20039;-67
2022/05/05 07:14:45;;;;;;;12.85;4.47;;;;;;;13.36;55.78;100801.94;5065845;28;20239;-67
2022/05/05 07:17:11;;;;;;;14.25;4.50;;;;;;;13.19;55.90;100796.94;5083955;28;20027;-66
2022/05/05 07:19:37;;;;;;;13.32;4.40;;;;;;;12.98;56.44;100803.28;5083980;28;20031;-67
2022/05/05 07:22:03;;;;;;;7.32;4.32;;;;;;;12.84;56.92;100800.84;5084106;28;20020;-67
2022/05/05 07:24:30;;;;;;;11.52;4.47;;;;;;;12.92;57.13;100804.22;5083710;28;20017;-67
2022/05/05 07:26:55;;;;;;;12.57;4.55;;;;;;;13.03;57.10;100793.66;5083328;28;20020;-67
2022/05/05 07:29:21;;;;;;;14.82;5.03;;;;;;;13.10;56.38;100792.69;5083891;28;20145;-68
2022/05/05 07:31:47;;;;;;;10.55;4.88;;;;;;;12.94;56.51;100799.00;5083950;28;20031;-66
2022/05/05 07:34:12;;;;;;;14.32;5.18;;;;;;;12.76;57.33;100796.56;5083531;28;20437;-66
2022/05/05 07:36:38;;;;;;;10.65;5.00;;;;;;;12.73;57.25;100798.38;5083419;28;20404;-66
2022/05/05 07:39:04;;;;;;;17.83;4.53;;;;;;;12.85;57.95;100799.94;5083772;28;20036;-67
2022/05/05 07:41:30;;;;;;;13.10;5.15;;;;;;;13.29;57.99;100795.06;5083167;28;20464;-66
2022/05/05 07:43:55;;;;;;;15.02;4.65;;;;;;;13.83;56.65;100797.81;5083504;28;20165;-66
2022/05/05 07:46:20;;;;;;;8.38;4.45;;;;;;;14.36;55.54;100789.94;5065091;28;20068;-66
2022/05/05 07:48:46;;;;;;;13.93;5.32;;;;;;;14.87;53.16;100803.81;5083398;28;20020;-66
2022/05/05 07:51:12;;;;;;;11.27;4.15;;;;;;;15.09;51.68;100802.53;5083507;28;20056;-67
2022/05/05 07:53:37;;;;;;;13.00;4.18;;;;;;;15.28;51.05;100799.50;5083031;28;20070;-68
2022/05/05 07:56:03;;;;;;;9.68;4.22;;;;;;;15.44;50.35;100793.06;5083271;28;20047;-67
2022/05/05 07:58:28;;;;;;;12.57;4.00;;;;;;;15.51;49.59;100799.00;5082831;28;20024;-68
2022/05/05 08:00:54;;;;;;;9.88;3.83;;;;;;;15.57;48.72;100793.66;5083000;28;20150;-66
2022/05/05 08:03:19;;;;;;;8.73;4.55;;;;;;;15.59;48.96;100801.47;5082993;28;20047;-67
2022/05/05 08:05:44;;;;;;;13.95;4.97;;;;;;;15.67;48.68;100804.72;5082207;28;20032;-67
2022/05/05 08:08:10;;;;;;;15.27;3.75;;;;;;;16.18;49.01;100809.69;5064788;28;20051;-68
2022/05/05 08:10:35;;;;;;;8.80;3.78;;;;;;;17.18;47.74;100797.38;5082825;28;20112;-68
2022/05/05 08:13:00;;;;;;;10.80;4.60;;;;;;;17.87;46.70;100804.88;5082691;28;20047;-66
2022/05/05 08:15:26;;;;;;;12.43;4.22;;;;;;;17.95;45.07;100797.63;5082650;28;20020;-68
2022/05/05 08:17:51;;;;;;;10.50;3.60;;;;;;;17.84;44.69;100806.69;5082733;28;20020;-67
2022/05/05 08:20:17;;;;;;;8.13;3.85;;;;;;;17.90;43.55;100804.78;5082908;28;20030;-67
2022/05/05 08:22:42;;;;;;;14.85;4.78;;;;;;;17.70;44.42;100795.78;5082618;28;20087;-67
2022/05/05 08:30:38;;;;;;;13.93;4.95;;;;;;;17.66;44.53;100802.03;5083059;28;20063;-68
2022/05/05 08:33:04;;;;;;;14.65;4.93;;;;;;;17.47;44.65;100805.25;5082681;28;20059;-66
2022/05/05 08:35:30;;;;;;;10.88;4.65;;;;;;;17.23;44.96;100807.72;5081868;28;20332;-68
2022/05/05 08:37:56;;;;;;;12.30;4.65;;;;;;;16.95;45.26;100803.22;5082077;28;20043;-67
2022/05/05 08:40:27;;;;;;;10.73;5.15;;;;;;;16.92;46.12;100816.44;5081907;28;20032;-68
2022/05/05 08:42:53;;;;;;;9.40;3.83;;;;;;;17.04;46.24;100812.63;5082237;28;20109;-67
2022/05/05 08:45:19;;;;;;;9.30;4.22;;;;;;;17.19;45.92;100811.31;5082348;28;20070;-66
2022/05/05 08:47:47;;;;;;;9.15;3.80;;;;;;;17.17;45.38;100813.16;5082375;28;20020;-67
2022/05/05 08:50:14;;;;;;;12.48;3.92;;;;;;;16.85;46.07;100808.75;5082502;28;20114;-66
2022/05/05 08:52:45;;;;;;;17.33;5.07;;;;;;;16.59;46.74;100812.97;5082198;28;20122;-67
2022/05/05 08:55:16;;;;;;;11.13;4.88;;;;;;;16.35;46.94;100812.72;5082494;28;20020;-67
2022/05/05 08:57:42;;;;;;;13.18;5.75;;;;;;;16.03;47.15;100819.66;5082068;28;20121;-67
2022/05/05 09:00:10;;;;;;;20.52;5.82;;;;;;;15.71;47.77;100819.50;5082325;28;20024;-68
2022/05/05 09:02:35;;;;;;;13.85;4.97;;;;;;;15.24;49.08;100822.25;5082072;28;20029;-67
2022/05/05 09:05:03;;;;;;;10.20;4.75;;;;;;;14.86;49.77;100824.78;5082092;28;20067;-67
2022/05/05 09:07:50;;;;;;;12.18;5.05;;;;;;;14.56;50.58;100827.03;5082246;28;20153;-66
2022/05/05 09:10:17;;;;;;;12.25;4.95;;;;;;;14.35;51.70;100829.16;5082054;28;20052;-67
2022/05/05 09:12:56;;;;;;;11.32;5.38;;;;;;;14.18;52.39;100825.09;5081694;28;20024;-67
2022/05/05 09:15:35;;;;;;;12.90;4.97;;;;;;;14.07;52.82;100822.66;5082006;28;20047;-68
2022/05/05 09:18:18;;;;;;;8.32;4.80;;;;;;;13.99;52.98;100816.69;5085681;28;20203;-67
2022/05/05 09:20:45;;;;;;;9.75;4.38;;;;;;;13.78;54.12;100818.75;5086142;28;20017;-67
2022/05/05 09:23:29;;;;;;;8.27;4.13;;;;;;;13.62;53.85;100833.78;5086028;28;20021;-68
2022/05/05 09:25:55;;;;;;;12.82;5.10;;;;;;;13.43;54.77;100833.13;5085919;28;20360;-68
2022/05/05 09:28:22;;;;;;;12.05;4.93;;;;;;;13.23;55.39;100835.13;5085800;28;20021;-68
2022/05/05 09:30:48;;;;;;;11.55;5.65;;;;;;;13.07;56.28;100839.66;5086012;28;20112;-68
2022/05/05 09:33:36;;;;;;;8.68;5.03;;;;;;;12.97;56.14;100835.44;5086030;28;20058;-68
2022/05/05 09:36:06;;;;;;;9.82;5.03;;;;;;;12.72;56.96;100843.50;5085558;28;20044;-67
2022/05/05 09:38:54;;;;;;;11.07;5.43;;;;;;;12.51;57.40;100846.31;5085948;28;20134;-67
2022/05/05 09:41:22;;;;;;;12.15;5.60;;;;;;;12.39;57.82;100852.53;5085663;28;20047;-68
2022/05/05 09:43:47;;;;;;;16.83;5.65;;;;;;;12.25;58.06;100849.16;5067648;28;20047;-67
2022/05/05 09:46:22;;;;;;;8.73;5.05;;;;;;;12.09;58.60;100846.66;5085682;28;20028;-68
2022/05/05 09:48:47;;;;;;;13.10;5.97;;;;;;;11.99;58.47;100852.78;5085690;28;20024;-67
2022/05/05 09:51:14;;;;;;;8.13;5.18;;;;;;;11.88;59.28;100850.28;5085616;28;20086;-67
2022/05/05 09:59:15;;;;;;;11.45;5.40;;;;;;;11.53;60.36;100860.00;5085591;28;20071;-68
2022/05/05 10:01:41;;;;;;;11.25;5.47;;;;;;;11.42;61.23;100861.78;5085379;28;20016;-67
2022/05/05 10:04:09;;;;;;;14.75;5.38;;;;;;;11.25;61.54;100849.72;5085157;28;20024;-67
2022/05/05 10:06:42;;;;;;;13.55;5.35;;;;;;;11.11;62.11;100858.44;5085197;28;20376;-68
2022/05/05 10:09:09;;;;;;;13.23;5.70;;;;;;;10.96;62.77;100853.31;5085194;28;20039;-67
2022/05/05 10:11:35;;;;;;;11.38;5.55;;;;;;;10.84;64.15;100859.38;5084833;28;20052;-68
2022/05/05 10:14:03;;;;;;;12.55;6.07;;;;;;;10.74;64.84;100858.53;5084905;28;20480;-67
2022/05/05 10:16:32;;;;;;;15.57;5.47;;;;;;;10.66;65.39;100861.16;5084974;28;20462;-65
2022/05/05 10:19:00;;;;;;;18.25;6.63;;;;;;;10.69;65.10;100865.50;5085095;28;20091;-66
2022/05/05 10:22:05;;;;;;;13.55;6.53;;;;;;;10.60;65.95;100858.56;5085064;28;20426;-64
2022/05/05 10:24:31;;;;;;;12.27;6.70;;;;;;;10.49;66.80;100854.25;5082545;28;20025;-66
2022/05/05 10:26:59;;;;;;;19.13;6.85;;;;;;;10.39;66.93;100850.75;5084349;28;20031;-67
2022/05/05 10:29:31;;;;;;;12.82;7.03;;;;;;;10.38;68.31;100855.97;5083982;28;20092;-67
2022/05/05 10:32:20;;;;;;;15.80;7.53;;;;;;;10.29;69.54;100857.69;5084641;28;20103;-67
2022/05/05 10:34:51;;;;;;;20.88;7.68;;;;;;;10.11;70.90;100848.16;5084120;28;20354;-67
2022/05/05 10:37:30;;;;;;;17.85;8.07;;;;;;;10.17;71.87;100866.31;5084537;28;20101;-66
2022/05/05 10:39:59;;;;;;;15.50;6.80;;;;;;;10.17;71.69;100862.88;5084605;28;20063;-66
2022/05/05 10:42:27;;;;;;;19.90;8.02;;;;;;;10.22;72.04;100866.34;5084259;28;20107;-65
2022/05/05 10:45:14;;;;;;;20.92;8.60;;;;;;;10.29;72.43;100862.00;5084304;28;20171;-66
2022/05/05 10:47:52;;;;;;;19.67;8.45;;;;;;;10.43;72.50;100864.63;5084743;28;20052;-66
2022/05/05 10:50:50;;;;;;;21.45;9.35;;;;;;;10.54;72.38;100862.03;5084270;28;20437;-66
2022/05/05 10:53:41;;;;;;;15.63;8.70;;;;;;;10.69;72.65;100861.13;5084047;28;20025;-66
2022/05/05 10:56:31;;;;;;;16.90;9.50;;;;;;;10.84;72.47;100857.66;5066007;28;20029;-66
2022/05/05 10:59:04;;;;;;;14.57;7.60;;;;;;;11.02;72.36;100858.47;5083982;28;20044;-66
2022/05/05 11:01:31;;;;;;;;;;;;;;;11.22;71.64;100854.94;5084551;28;20082;-66
2022/05/05 11:04:25;;;;;;;16.13;8.05;;;;;;;11.34;70.69;100860.06;5084306;28;19961;-66
2022/05/05 11:07:15;;;;;;;19.33;9.13;;;;;;;11.39;70.05;100853.13;5083939;28;20038;-66
2022/05/05 11:09:41;;;;;;;22.48;9.55;;;;;;;11.31;69.45;100854.88;5083918;28;20029;-67
2022/05/05 11:12:20;;;;;;;16.08;8.43;;;;;;;11.38;69.27;100853.13;5083874;28;20021;-66
2022/05/05 11:23:32;;;;;;;20.00;10.10;;;;;;;11.51;69.15;100856.53;5083950;28;20077;-65
2022/05/05 11:25:58;;;;;;;22.50;11.23;;;;;;;11.51;68.98;100857.41;5083648;28;20024;-65
2022/05/05 11:28:27;;;;;;;25.30;10.52;;;;;;;11.55;68.85;100847.84;5083308;28;20024;-67
2022/05/05 11:30:52;;;;;;;28.20;12.90;;;;;;;11.54;68.63;100864.34;5065515;28;20024;-66
2022/05/05 11:33:19;;;;;;;25.70;13.48;;;;;;;11.49;68.60;100858.28;5083786;28;20047;-67
2022/05/05 11:36:02;;;;;;;24.65;12.65;;;;;;;11.42;68.69;100856.59;5083250;28;20098;-66
2022/05/05 11:38:28;;;;;;;23.83;13.68;;;;;;;11.37;68.66;100867.03;5083652;28;20024;-66
2022/05/05 11:41:03;;;;;;;26.73;13.55;;;;;;;11.36;68.86;100870.47;5082261;28;20021;-66
2022/05/05 11:46:18;;;;;;;28.73;14.93;;;;;;;11.20;70.08;100869.69;5083367;28;20039;-66
2022/05/05 11:48:52;;;;;;;30.98;13.10;;;;;;;11.14;70.47;100868.84;5083455;28;20025;-66
2022/05/05 11:51:22;;;;;;;26.90;13.75;;;;;;;11.18;70.52;100868.81;5083226;28;20034;-67
2022/05/05 11:53:47;;;;;;;22.05;13.23;;;;;;;11.25;70.38;100865.31;5083191;28;20028;-64
2022/05/05 11:56:13;;;;;;;29.13;14.10;;;;;;;11.29;70.32;100874.84;5082948;28;20031;-66
2022/05/05 12:01:37;;;;;;;25.35;14.07;;;;;;;11.18;70.65;100872.28;5083178;28;20031;-66
2022/05/05 12:04:02;;;;;;;31.40;15.75;;;;;;;11.07;71.38;100874.91;5064854;28;20048;-66
2022/05/05 12:06:30;;;;;;;26.65;14.70;;;;;;;11.05;71.63;100868.88;5082775;28;20021;-66
2022/05/05 12:08:56;;;;;;;33.70;14.93;;;;;;;11.00;72.02;100871.47;5082994;28;20464;-66
2022/05/05 12:11:25;;;;;;;31.92;14.10;;;;;;;11.08;72.04;100874.06;5082979;28;20021;-66